createdAt,value
2022-08-14T00:01:54.785Z,7.53
2022-08-14T00:04:34.932Z,7.30
2022-08-14T00:07:07.013Z,7.28
2022-08-14T00:09:39.867Z,7.63
2022-08-14T00:12:23.612Z,7.70
2022-08-14T00:14:53.218Z,6.55
2022-08-14T00:17:22.799Z,6.72
2022-08-14T00:19:49.800Z,7.25
2022-08-14T00:22:44.281Z,7.32
2022-08-14T00:25:07.405Z,7.13
2022-08-14T00:27:35.309Z,7.18
2022-08-14T00:30:10.839Z,7.38
2022-08-14T00:33:00.755Z,6.63
2022-08-14T00:36:34.336Z,7.85
2022-08-14T00:38:11.968Z,7.13
2022-08-14T00:40:39.038Z,8.02
2022-08-14T00:43:06.677Z,9.45
2022-08-14T00:45:34.450Z,8.77
2022-08-14T00:48:01.078Z,7.53
2022-08-14T00:50:31.202Z,7.67
2022-08-14T00:53:02.452Z,7.60
2022-08-14T00:55:30.299Z,9.82
2022-08-14T00:58:17.817Z,8.13
2022-08-14T01:00:50.830Z,7.75
2022-08-14T01:03:25.736Z,8.47
2022-08-14T01:05:52.697Z,8.23
2022-08-14T01:08:51.607Z,8.02
2022-08-14T01:11:19.378Z,7.90
2022-08-14T01:13:55.690Z,8.20
2022-08-14T01:16:27.409Z,8.03
2022-08-14T01:19:15.941Z,8.60
2022-08-14T01:21:47.346Z,8.50
2022-08-14T01:24:22.890Z,8.27
2022-08-14T01:27:00.157Z,7.80
2022-08-14T01:29:42.087Z,8.73
2022-08-14T01:32:22.635Z,8.38
2022-08-14T01:35:19.906Z,8.45
2022-08-14T01:37:46.815Z,8.45
2022-08-14T01:40:36.534Z,8.68
2022-08-14T01:43:18.590Z,8.70
2022-08-14T01:46:06.587Z,8.80
2022-08-14T01:48:37.219Z,8.68
2022-08-14T01:51:19.321Z,9.30
2022-08-14T01:53:51.390Z,8.93
2022-08-14T01:56:23.441Z,8.67
2022-08-14T01:58:57.759Z,9.15
2022-08-14T02:01:26.691Z,8.75
2022-08-14T02:03:57.142Z,8.85
2022-08-14T02:06:33.022Z,10.00
2022-08-14T02:09:02.430Z,9.40
2022-08-14T02:11:31.659Z,9.77
2022-08-14T02:14:07.140Z,9.43
2022-08-14T02:16:42.348Z,9.77
2022-08-14T02:19:15.691Z,9.40
2022-08-14T02:21:48.849Z,9.53
2022-08-14T02:24:39.229Z,9.90
2022-08-14T02:28:23.365Z,9.55
2022-08-14T02:30:00.803Z,9.60
2022-08-14T02:32:36.312Z,9.70
2022-08-14T02:35:16.414Z,10.60
2022-08-14T02:37:49.332Z,9.90
2022-08-14T02:40:32.548Z,9.38
2022-08-14T02:43:02.683Z,10.45
2022-08-14T02:45:38.849Z,10.75
2022-08-14T02:49:04.921Z,10.57
2022-08-14T02:51:00.639Z,10.45
2022-08-14T02:53:31.471Z,9.75
2022-08-14T02:56:03.013Z,10.52
2022-08-14T02:58:32.352Z,10.57
2022-08-14T03:01:01.247Z,10.53
2022-08-14T03:03:28.710Z,10.27
2022-08-14T03:06:00.271Z,9.80
2022-08-14T03:08:31.822Z,9.80
2022-08-14T03:10:59.567Z,10.27
2022-08-14T03:13:26.170Z,9.87
2022-08-14T03:15:57.797Z,9.82
2022-08-14T03:18:32.058Z,10.73
2022-08-14T03:21:05.929Z,10.27
2022-08-14T03:23:38.204Z,9.80
2022-08-14T03:26:08.477Z,10.57
2022-08-14T03:28:36.684Z,10.90
2022-08-14T03:31:08.321Z,10.48
2022-08-14T03:33:41.098Z,10.85
2022-08-14T03:37:37.679Z,11.95
2022-08-14T03:39:14.094Z,11.77
2022-08-14T03:41:47.443Z,11.65
2022-08-14T03:45:26.419Z,12.77
2022-08-14T03:47:03.085Z,10.68
2022-08-14T03:49:30.324Z,11.88
2022-08-14T03:52:04.737Z,11.33
2022-08-14T03:54:52.278Z,11.27
2022-08-14T03:57:20.292Z,11.68
2022-08-14T03:59:49.495Z,11.93
2022-08-14T04:02:32.361Z,12.00
2022-08-14T04:05:11.978Z,11.83
2022-08-14T04:07:49.929Z,12.70
2022-08-14T04:10:31.906Z,12.30
2022-08-14T04:12:59.988Z,12.50
2022-08-14T04:15:30.387Z,12.65
2022-08-14T04:17:58.960Z,11.97
2022-08-14T04:20:27.263Z,12.38
2022-08-14T04:22:54.806Z,12.38
2022-08-14T04:25:22.475Z,11.93
2022-08-14T04:28:02.355Z,11.95
2022-08-14T04:30:33.058Z,11.57
2022-08-14T04:33:13.463Z,11.95
2022-08-14T04:35:55.584Z,11.95
2022-08-14T04:38:42.316Z,12.35
2022-08-14T04:41:30.347Z,11.45
2022-08-14T04:43:57.943Z,12.57
2022-08-14T04:46:56.110Z,12.40
2022-08-14T04:49:15.099Z,12.73
2022-08-14T04:51:55.362Z,12.43
2022-08-14T04:54:26.953Z,12.77
2022-08-14T04:56:57.692Z,12.50
2022-08-14T04:59:25.218Z,12.90
2022-08-14T05:01:56.502Z,12.10
2022-08-14T05:04:24.944Z,13.77
2022-08-14T05:06:54.373Z,12.95
2022-08-14T05:09:29.292Z,12.77
2022-08-14T05:12:54.867Z,12.98
2022-08-14T05:14:53.146Z,13.10
2022-08-14T05:17:32.227Z,11.82
2022-08-14T05:21:54.168Z,11.85
2022-08-14T05:22:59.781Z,12.93
2022-08-14T05:25:33.469Z,13.02
2022-08-14T05:28:19.257Z,12.65
2022-08-14T05:30:58.718Z,12.25
2022-08-14T05:33:28.547Z,12.60
2022-08-14T05:36:01.082Z,12.60
2022-08-14T05:38:39.432Z,12.80
2022-08-14T05:41:09.544Z,13.13
2022-08-14T05:43:41.301Z,14.20
2022-08-14T05:46:15.240Z,13.05
2022-08-14T05:48:43.124Z,13.43
2022-08-14T05:51:10.145Z,12.82
2022-08-14T05:53:37.275Z,12.40
2022-08-14T05:56:09.357Z,12.27
2022-08-14T05:58:40.939Z,12.23
2022-08-14T06:01:09.606Z,12.27
2022-08-14T06:03:36.987Z,13.45
2022-08-14T06:06:07.339Z,12.52
2022-08-14T06:08:36.523Z,12.05
2022-08-14T06:11:09.390Z,13.30
2022-08-14T06:13:44.566Z,13.47
2022-08-14T06:16:15.111Z,22.02
2022-08-14T06:18:47.111Z,13.00
2022-08-14T06:21:15.911Z,13.48
2022-08-14T06:23:44.147Z,12.50
2022-08-14T06:26:15.491Z,13.53
2022-08-14T06:28:45.423Z,13.02
2022-08-14T06:31:12.574Z,12.95
2022-08-14T06:35:04.565Z,13.75
2022-08-14T06:36:26.534Z,12.50
2022-08-14T06:38:53.881Z,12.43
2022-08-14T06:41:25.547Z,12.15
2022-08-14T06:44:10.766Z,11.75
2022-08-14T06:46:38.602Z,12.30
2022-08-14T06:49:05.489Z,11.65
2022-08-14T06:51:44.494Z,12.27
2022-08-14T06:54:12.616Z,11.25
2022-08-14T06:56:39.825Z,12.77
2022-08-14T06:59:16.687Z,11.75
2022-08-14T07:02:05.177Z,11.55
2022-08-14T07:04:50.457Z,11.57
2022-08-14T07:07:17.075Z,10.93
2022-08-14T07:09:51.097Z,12.32
2022-08-14T07:12:34.870Z,11.50
2022-08-14T07:15:06.607Z,12.00
2022-08-14T07:17:34.420Z,12.30
2022-08-14T07:20:04.043Z,11.57
2022-08-14T07:22:32.936Z,10.52
2022-08-14T07:25:17.064Z,10.95
2022-08-14T07:27:43.834Z,12.48
2022-08-14T07:30:33.923Z,11.83
2022-08-14T07:32:59.618Z,12.27
2022-08-14T07:35:30.329Z,12.52
2022-08-14T07:38:06.143Z,12.73
2022-08-14T07:40:35.479Z,12.75
2022-08-14T07:43:14.277Z,12.60
2022-08-14T07:45:41.813Z,13.02
2022-08-14T07:48:09.289Z,12.48
2022-08-14T07:50:45.497Z,12.05
2022-08-14T07:53:14.460Z,11.80
2022-08-14T07:55:42.910Z,11.90
2022-08-14T07:58:30.388Z,12.23
2022-08-14T08:00:57.435Z,12.70
2022-08-14T08:03:28.201Z,11.75
2022-08-14T08:05:57.650Z,11.73
2022-08-14T08:08:26.877Z,12.00
2022-08-14T08:11:03.123Z,11.73
2022-08-14T08:13:33.889Z,12.95
2022-08-14T08:16:08.250Z,11.95
2022-08-14T08:18:36.096Z,12.65
2022-08-14T08:21:03.325Z,12.27
2022-08-14T08:23:40.468Z,11.90
2022-08-14T08:26:17.720Z,12.20
2022-08-14T08:28:44.322Z,11.52
2022-08-14T08:31:12.704Z,12.73
2022-08-14T08:33:42.557Z,12.33
2022-08-14T08:36:12.833Z,11.98
2022-08-14T08:39:15.675Z,12.32
2022-08-14T08:41:28.080Z,12.05
2022-08-14T08:44:05.518Z,11.98
2022-08-14T08:46:32.361Z,11.63
2022-08-14T08:51:43.123Z,11.53
2022-08-14T08:54:18.367Z,10.65
2022-08-14T08:56:48.791Z,11.80
2022-08-14T08:59:22.129Z,11.32
2022-08-14T09:02:04.961Z,12.35
2022-08-14T09:04:44.951Z,11.03
2022-08-14T09:07:14.499Z,11.73
2022-08-14T09:09:58.911Z,11.93
2022-08-14T09:12:46.806Z,10.13
2022-08-14T09:15:17.984Z,10.90
2022-08-14T09:17:46.389Z,10.87
2022-08-14T09:20:26.289Z,9.82
2022-08-14T09:22:56.654Z,10.23
2022-08-14T09:26:00.169Z,12.00
2022-08-14T09:28:10.724Z,11.40
2022-08-14T09:30:43.037Z,10.40
2022-08-14T09:33:56.433Z,9.20
2022-08-14T09:36:57.211Z,10.90
2022-08-14T09:39:36.829Z,9.77
2022-08-14T09:42:34.258Z,10.90
2022-08-14T09:45:17.648Z,9.73
2022-08-14T09:47:54.981Z,9.30
2022-08-14T09:50:26.153Z,9.15
2022-08-14T09:53:00.040Z,8.80
2022-08-14T09:55:36.788Z,9.15
2022-08-14T09:58:19.859Z,8.83
2022-08-14T10:01:00.710Z,8.32
2022-08-14T10:03:34.462Z,8.57
2022-08-14T10:06:07.248Z,8.45
2022-08-14T10:08:51.561Z,9.55
2022-08-14T10:11:25.635Z,8.70
2022-08-14T10:14:29.446Z,9.00
2022-08-14T10:17:04.834Z,8.27
2022-08-14T10:19:35.948Z,8.18
2022-08-14T10:23:15.125Z,8.40
2022-08-14T10:24:52.406Z,8.20
2022-08-14T10:27:23.685Z,8.25
2022-08-14T10:29:55.645Z,8.90
2022-08-14T10:32:28.676Z,8.00
2022-08-14T10:35:06.827Z,8.13
2022-08-14T10:37:46.817Z,6.93
2022-08-14T10:40:37.354Z,8.82
2022-08-14T10:43:02.786Z,7.93
2022-08-14T10:45:35.633Z,8.23
2022-08-14T10:48:34.521Z,7.63
2022-08-14T10:51:01.612Z,7.90
2022-08-14T10:53:33.498Z,7.60
2022-08-14T10:56:04.120Z,9.07
2022-08-14T10:58:34.424Z,7.68
2022-08-14T11:01:08.103Z,7.68
2022-08-14T11:03:56.015Z,7.10
2022-08-14T11:06:24.718Z,7.07
2022-08-14T11:08:52.836Z,7.60
2022-08-14T11:11:22.489Z,8.50
2022-08-14T11:13:51.504Z,6.35
2022-08-14T11:16:18.315Z,6.50
2022-08-14T11:18:50.879Z,7.28
2022-08-14T11:21:23.270Z,7.05
2022-08-14T11:23:53.820Z,7.30
2022-08-14T11:26:28.010Z,7.55
2022-08-14T11:29:00.214Z,7.43
2022-08-14T11:31:38.637Z,7.25
2022-08-14T11:34:05.789Z,8.48
2022-08-14T11:37:02.131Z,8.40
2022-08-14T11:39:34.891Z,7.32
2022-08-14T11:42:56.824Z,7.83
2022-08-14T11:45:04.198Z,7.50
2022-08-14T11:48:10.846Z,7.03
2022-08-14T11:50:36.189Z,7.50
2022-08-14T11:53:06.864Z,7.50
2022-08-14T11:55:38.509Z,7.60
2022-08-14T11:58:09.514Z,6.97
2022-08-14T12:00:53.666Z,6.47
2022-08-14T12:03:27.088Z,7.22
2022-08-14T12:06:28.744Z,6.45
2022-08-14T12:08:56.640Z,6.60
2022-08-14T12:11:44.133Z,7.40
2022-08-14T12:14:30.927Z,7.40
2022-08-14T12:17:04.767Z,7.30
2022-08-14T12:19:33.779Z,7.40
2022-08-14T12:22:02.705Z,7.00
2022-08-14T12:24:36.902Z,6.68
2022-08-14T12:27:07.557Z,8.55
2022-08-14T12:29:34.903Z,7.43
2022-08-14T12:32:06.675Z,7.20
2022-08-14T12:34:37.162Z,6.70
2022-08-14T12:37:08.956Z,6.53
2022-08-14T12:39:39.817Z,6.78
2022-08-14T12:42:08.549Z,5.95
2022-08-14T12:44:43.018Z,6.40
2022-08-14T12:47:15.311Z,6.47
2022-08-14T12:49:54.262Z,6.60
2022-08-14T12:52:44.585Z,6.50
2022-08-14T12:55:22.744Z,6.18
2022-08-14T12:58:29.475Z,6.45
2022-08-14T13:01:16.078Z,6.30
2022-08-14T13:03:45.342Z,6.25
2022-08-14T13:06:14.000Z,6.00
2022-08-14T13:08:52.669Z,5.90
2022-08-14T13:11:23.759Z,6.38
2022-08-14T13:13:53.902Z,5.87
2022-08-14T13:16:33.813Z,5.40
2022-08-14T13:19:11.015Z,5.75
2022-08-14T13:22:05.399Z,6.00
2022-08-14T13:24:27.910Z,6.20
2022-08-14T13:26:58.277Z,5.60
2022-08-14T13:29:29.688Z,5.88
2022-08-14T13:31:58.783Z,5.68
2022-08-14T13:34:29.392Z,5.80
2022-08-14T13:36:59.199Z,5.90
2022-08-14T13:39:31.505Z,6.00
2022-08-14T13:42:08.706Z,5.70
2022-08-14T13:44:42.761Z,5.75
2022-08-14T13:47:10.881Z,5.75
2022-08-14T13:49:40.305Z,6.03
2022-08-14T13:52:51.564Z,5.80
2022-08-14T13:55:13.370Z,5.45
2022-08-14T13:57:49.601Z,5.60
2022-08-14T14:00:21.818Z,5.85
2022-08-14T14:03:00.072Z,5.63
2022-08-14T14:05:53.081Z,5.37
2022-08-14T14:08:43.740Z,5.82
2022-08-14T14:11:04.378Z,5.90
2022-08-14T14:13:31.934Z,5.90
2022-08-14T14:16:03.803Z,6.10
2022-08-14T14:18:34.806Z,5.90
2022-08-14T14:21:02.915Z,6.40
2022-08-14T14:23:32.451Z,5.53
2022-08-14T14:25:59.790Z,5.80
2022-08-14T14:28:31.593Z,6.32
2022-08-14T14:31:06.097Z,5.87
2022-08-14T14:33:50.744Z,6.20
2022-08-14T14:36:22.316Z,6.75
2022-08-14T14:39:08.139Z,6.57
2022-08-14T14:41:43.936Z,5.90
2022-08-14T14:44:15.662Z,6.60
2022-08-14T14:46:49.507Z,5.70
2022-08-14T14:49:22.132Z,5.95
2022-08-14T14:51:58.766Z,6.35
2022-08-14T14:54:32.036Z,5.50
2022-08-14T14:57:07.610Z,5.38
2022-08-14T14:59:37.374Z,5.50
2022-08-14T15:02:07.989Z,5.88
2022-08-14T15:04:38.068Z,6.00
2022-08-14T15:07:08.405Z,5.85
2022-08-14T15:09:39.031Z,6.40
2022-08-14T15:12:16.200Z,6.00
2022-08-14T15:14:58.079Z,5.65
2022-08-14T15:17:40.915Z,6.30
2022-08-14T15:20:17.213Z,6.00
2022-08-14T15:22:51.001Z,6.28
2022-08-14T15:25:18.639Z,6.40
2022-08-14T15:27:47.078Z,5.93
2022-08-14T15:30:23.964Z,6.28
2022-08-14T15:32:51.632Z,6.10
2022-08-14T15:35:22.343Z,6.47
2022-08-14T15:37:56.006Z,6.37
2022-08-14T15:40:23.728Z,6.10
2022-08-14T15:42:50.848Z,6.00
2022-08-14T15:45:19.080Z,7.18
2022-08-14T15:47:45.672Z,6.97
2022-08-14T15:50:12.993Z,6.30
2022-08-14T15:52:41.514Z,6.82
2022-08-14T15:55:14.795Z,6.72
2022-08-14T15:58:01.872Z,6.88
2022-08-14T16:00:52.566Z,6.78
2022-08-14T16:03:24.832Z,6.50
2022-08-14T16:05:52.057Z,6.70
2022-08-14T16:08:27.398Z,7.65
2022-08-14T16:10:55.879Z,6.40
2022-08-14T16:13:41.232Z,6.38
2022-08-14T16:16:49.577Z,6.03
2022-08-14T16:19:11.125Z,6.47
2022-08-14T16:21:39.998Z,6.47
2022-08-14T16:24:27.093Z,7.00
2022-08-14T16:27:00.671Z,6.85
2022-08-14T16:29:29.898Z,7.00
2022-08-14T16:31:58.909Z,6.80
2022-08-14T16:34:45.060Z,7.15
2022-08-14T16:37:16.501Z,7.28
2022-08-14T16:39:43.538Z,6.90
2022-08-14T16:43:03.236Z,7.30
2022-08-14T16:44:59.881Z,6.93
2022-08-14T16:47:34.927Z,7.22
2022-08-14T16:50:04.545Z,6.63
2022-08-14T16:52:43.869Z,7.43
2022-08-14T16:55:13.920Z,6.93
2022-08-14T16:57:53.531Z,7.60
2022-08-14T17:00:28.470Z,9.10
2022-08-14T17:03:08.609Z,9.45
2022-08-14T17:05:41.807Z,8.15
2022-08-14T17:08:32.131Z,8.00
2022-08-14T17:11:11.041Z,10.32
2022-08-14T17:13:59.935Z,8.40
2022-08-14T17:16:38.617Z,8.68
2022-08-14T17:19:13.389Z,8.48
2022-08-14T17:21:41.522Z,8.00
2022-08-14T17:24:57.336Z,7.95
2022-08-14T17:27:04.432Z,8.80
2022-08-14T17:29:44.827Z,8.45
2022-08-14T17:32:29.217Z,8.52
2022-08-14T17:34:57.729Z,9.50
2022-08-14T17:37:44.717Z,5.43
2022-08-14T17:40:17.643Z,4.68
2022-08-14T17:42:53.594Z,5.05
2022-08-14T17:45:43.181Z,4.72
2022-08-14T17:49:10.974Z,4.60
2022-08-14T17:51:23.299Z,5.10
2022-08-14T17:53:53.466Z,5.60
2022-08-14T17:56:31.743Z,5.22
2022-08-14T17:59:06.903Z,5.10
2022-08-14T18:01:45.713Z,5.63
2022-08-14T18:04:25.074Z,6.50
2022-08-14T18:07:08.823Z,5.60
2022-08-14T18:09:56.723Z,5.63
2022-08-14T18:12:37.208Z,5.18
2022-08-14T18:15:18.599Z,6.33
2022-08-14T18:17:52.508Z,5.60
2022-08-14T18:21:24.144Z,5.90
2022-08-14T18:23:12.999Z,5.65
2022-08-14T18:25:47.326Z,7.63
2022-08-14T18:28:37.898Z,6.40
2022-08-14T18:31:23.337Z,7.68
2022-08-14T18:34:11.791Z,6.93
2022-08-14T18:36:55.409Z,7.50
2022-08-14T18:40:01.591Z,9.70
2022-08-14T18:42:23.717Z,18.87
2022-08-14T18:44:50.907Z,11.45
2022-08-14T18:47:22.531Z,8.43
2022-08-14T18:50:26.064Z,7.80
2022-08-14T18:53:04.791Z,7.95
2022-08-14T18:55:33.475Z,7.60
2022-08-14T18:58:00.859Z,6.97
2022-08-14T19:00:32.411Z,7.55
2022-08-14T19:03:07.681Z,8.35
2022-08-14T19:05:49.395Z,8.20
2022-08-14T19:08:22.164Z,8.30
2022-08-14T19:10:57.389Z,7.95
2022-08-14T19:13:48.699Z,7.80
2022-08-14T19:16:22.815Z,8.43
2022-08-14T19:19:00.035Z,13.02
2022-08-14T19:21:33.479Z,7.80
2022-08-14T19:24:27.753Z,8.10
2022-08-14T19:27:23.039Z,8.18
2022-08-14T19:30:20.529Z,8.10
2022-08-14T19:32:50.737Z,8.95
2022-08-14T19:35:19.290Z,9.27
2022-08-14T19:37:52.624Z,8.48
2022-08-14T19:40:33.853Z,8.75
2022-08-14T19:43:06.773Z,8.25
2022-08-14T19:45:37.788Z,8.43
2022-08-14T19:48:12.184Z,9.40
2022-08-14T19:50:41.225Z,9.93
2022-08-14T19:53:16.483Z,9.10
2022-08-14T19:55:47.464Z,8.60
2022-08-14T19:58:18.391Z,8.82
2022-08-14T20:00:57.053Z,8.73
2022-08-14T20:03:24.873Z,8.80
2022-08-14T20:06:05.542Z,8.63
2022-08-14T20:09:05.849Z,9.27
2022-08-14T20:12:00.771Z,8.93
2022-08-14T20:14:27.970Z,8.60
2022-08-14T20:17:04.965Z,13.48
2022-08-14T20:19:38.084Z,9.20
2022-08-14T20:22:37.218Z,8.98
2022-08-14T20:25:15.208Z,8.95
2022-08-14T20:27:45.833Z,9.47
2022-08-14T20:30:33.644Z,9.25
2022-08-14T20:33:10.876Z,9.50
2022-08-14T20:35:44.453Z,9.63
2022-08-14T20:38:30.604Z,9.43
2022-08-14T20:41:08.619Z,8.60
2022-08-14T20:43:57.621Z,8.93
2022-08-14T20:46:38.942Z,8.68
2022-08-14T20:49:08.694Z,8.75
2022-08-14T20:51:54.788Z,8.35
2022-08-14T20:54:33.380Z,8.27
2022-08-14T20:57:10.127Z,7.88
2022-08-14T20:59:44.400Z,8.70
2022-08-14T21:02:50.404Z,8.30
2022-08-14T21:05:22.471Z,8.45
2022-08-14T21:08:08.206Z,8.30
2022-08-14T21:10:49.636Z,9.10
2022-08-14T21:13:27.916Z,8.60
2022-08-14T21:16:04.531Z,8.85
2022-08-14T21:18:55.176Z,8.60
2022-08-14T21:21:41.168Z,8.30
2022-08-14T21:24:38.537Z,8.52
2022-08-14T21:27:04.506Z,8.95
2022-08-14T21:29:41.089Z,9.55
2022-08-14T21:32:33.576Z,8.85
2022-08-14T21:35:07.913Z,9.33
2022-08-14T21:37:44.091Z,8.40
2022-08-14T21:40:18.723Z,8.88
2022-08-14T21:43:05.043Z,8.63
2022-08-14T21:45:35.379Z,8.60
2022-08-14T21:48:10.436Z,8.43
2022-08-14T21:51:01.714Z,8.77
2022-08-14T21:53:30.918Z,8.20
2022-08-14T21:55:58.078Z,8.32
2022-08-14T21:58:53.690Z,8.20
2022-08-14T22:01:15.899Z,8.20
2022-08-14T22:03:44.876Z,8.35
2022-08-14T22:06:12.343Z,7.95
2022-08-14T22:08:47.137Z,8.27
2022-08-14T22:11:23.432Z,8.45
2022-08-14T22:13:51.708Z,8.37
2022-08-14T22:17:01.900Z,8.40
2022-08-14T22:19:13.659Z,8.95
2022-08-14T22:21:44.112Z,8.68
2022-08-14T22:24:12.061Z,8.77
2022-08-14T22:27:01.939Z,9.00
2022-08-14T22:29:28.838Z,8.98
2022-08-14T22:31:55.710Z,9.23
2022-08-14T22:34:22.808Z,9.13
2022-08-14T22:36:50.641Z,9.05
2022-08-14T22:40:17.765Z,8.20
2022-08-14T22:42:19.369Z,8.85
2022-08-14T22:44:51.498Z,8.32
2022-08-14T22:47:24.928Z,8.10
2022-08-14T22:50:30.726Z,8.05
2022-08-14T22:52:40.386Z,7.70
2022-08-14T22:55:16.135Z,8.48
2022-08-14T22:57:43.797Z,8.95
2022-08-14T23:00:25.116Z,8.00
2022-08-14T23:02:56.626Z,8.75
2022-08-14T23:05:38.782Z,8.57
2022-08-14T23:08:56.325Z,8.20
2022-08-14T23:10:55.044Z,8.80
2022-08-14T23:13:21.849Z,8.40
2022-08-14T23:15:50.778Z,7.90
2022-08-14T23:18:17.366Z,7.23
2022-08-14T23:20:48.940Z,8.48
2022-08-14T23:23:22.755Z,8.10
2022-08-14T23:25:58.791Z,8.13
2022-08-14T23:28:34.881Z,8.27
2022-08-14T23:31:34.558Z,8.37
2022-08-14T23:34:07.588Z,7.85
2022-08-14T23:36:38.097Z,8.18
2022-08-14T23:39:31.257Z,8.25
2022-08-14T23:42:02.303Z,8.80
2022-08-14T23:44:34.756Z,8.60
2022-08-14T23:47:05.661Z,8.25
2022-08-14T23:50:00.655Z,8.65
2022-08-14T23:52:55.761Z,8.85
2022-08-14T23:55:12.837Z,9.05
2022-08-14T23:57:43.925Z,8.33
